This is the latest recevied weather packets stored in our database for station/object WO5CID. If no packets are shown the sender has not sent any weather packets the latest 10 day(s).
| Time | Temp. | Humidity | Pressure | Rain* | Wind** | Luminosity | Snow |
|---|---|---|---|---|---|---|---|
| 1777482770 | 30° C | 52% | 1015 hPa | 0 mm | - | 534 W/m² | - |
| 1777482460 | 30° C | 51% | 1015.2 hPa | 0 mm | - | 723 W/m² | - |
| 1777482158 | 30.56° C | 49% | 1015.3 hPa | 0 mm | - | 780 W/m² | - |
| 1777481856 | 30.56° C | 48% | 1015.3 hPa | 0 mm | - | 847 W/m² | - |
| 1777481553 | 29.44° C | 51% | 1015.4 hPa | 0 mm | - | 823 W/m² | - |
| 1777481250 | 29.44° C | 51% | 1015.6 hPa | 0 mm | - | 738 W/m² | - |
| 1777480947 | 30° C | 51% | 1015.6 hPa | 0 mm | - | 649 W/m² | - |
| 1777480642 | 29.44° C | 52% | 1015.6 hPa | 0 mm | - | 749 W/m² | - |
| 1777480339 | 30° C | 50% | 1015.8 hPa | 0 mm | - | 887 W/m² | - |
| 1777480035 | 30° C | 52% | 1015.6 hPa | 0 mm | - | 741 W/m² | - |
| 1777479732 | 30° C | 53% | 1015.8 hPa | 0 mm | - | 857 W/m² | - |
| 1777479430 | 30° C | 51% | 1016 hPa | 0 mm | - | 872 W/m² | - |
| 1777479126 | 30° C | 51% | 1016 hPa | 0 mm | - | 867 W/m² | - |
| 1777478823 | 30° C | 55% | 1016.1 hPa | 0 mm | - | 826 W/m² | - |
| 1777478519 | 29.44° C | 55% | 1016.2 hPa | 0 mm | - | 878 W/m² | - |
| 1777478216 | 28.89° C | 57% | 1016.3 hPa | 0 mm | - | 860 W/m² | - |
| 1777477913 | 28.89° C | 57% | 1016.4 hPa | 0 mm | - | 816 W/m² | - |
| 1777477602 | 28.89° C | 56% | 1016.5 hPa | 0 mm | - | 825 W/m² | - |
| 1777477299 | 28.33° C | 57% | 1016.6 hPa | 0 mm | - | 802 W/m² | - |
| 1777476996 | 28.33° C | 58% | 1016.6 hPa | 0 mm | - | 825 W/m² | - |
| 1777476694 | 27.78° C | 59% | 1016.5 hPa | 0 mm | - | 767 W/m² | - |
| 1777476390 | 27.22° C | 61% | 1016.8 hPa | 0 mm | - | 781 W/m² | - |
| 1777476087 | 27.78° C | 61% | 1016.8 hPa | 0 mm | - | 298 W/m² | - |
| 1777475787 | 27.78° C | 61% | 1016.7 hPa | 0 mm | - | 314 W/m² | - |
| 1777475484 | 27.22° C | 61% | 1016.7 hPa | 0 mm | - | 769 W/m² | - |
* Rain latest hour (hover to see other rain measurements)
** Current wind speed in m/s (hover to see current wind gust speed)